sensor_id;sensor_type;location;lat;lon;timestamp;P1;durP1;ratioP1;P2;durP2;ratioP2
12768;SDS011;6448;48.916;8.990;2022-10-03T00:00:41;2.92;;;2.72;;
12768;SDS011;6448;48.916;8.990;2022-10-03T00:02:15;3.00;;;2.80;;
12768;SDS011;6448;48.916;8.990;2022-10-03T00:03:29;2.83;;;2.63;;
12768;SDS011;6448;48.916;8.990;2022-10-03T00:04:42;2.45;;;2.35;;
12768;SDS011;6448;48.916;8.990;2022-10-03T00:06:03;2.80;;;2.60;;
12768;SDS011;6448;48.916;8.990;2022-10-03T00:07:12;2.65;;;2.45;;
12768;SDS011;6448;48.916;8.990;2022-10-03T00:08:32;2.80;;;2.60;;
12768;SDS011;6448;48.916;8.990;2022-10-03T00:09:50;2.72;;;2.53;;
12768;SDS011;6448;48.916;8.990;2022-10-03T00:11:02;2.97;;;2.67;;
12768;SDS011;6448;48.916;8.990;2022-10-03T00:12:12;2.90;;;2.70;;
12768;SDS011;6448;48.916;8.990;2022-10-03T00:13:19;2.90;;;2.70;;
12768;SDS011;6448;48.916;8.990;2022-10-03T00:14:27;3.03;;;2.83;;
12768;SDS011;6448;48.916;8.990;2022-10-03T00:15:36;2.90;;;2.70;;
12768;SDS011;6448;48.916;8.990;2022-10-03T00:16:45;2.80;;;2.60;;
12768;SDS011;6448;48.916;8.990;2022-10-03T00:17:57;2.92;;;2.72;;
12768;SDS011;6448;48.916;8.990;2022-10-03T00:19:06;3.10;;;2.90;;
12768;SDS011;6448;48.916;8.990;2022-10-03T00:20:29;3.00;;;2.80;;
12768;SDS011;6448;48.916;8.990;2022-10-03T00:21:43;2.90;;;2.70;;
12768;SDS011;6448;48.916;8.990;2022-10-03T00:22:55;2.90;;;2.70;;
12768;SDS011;6448;48.916;8.990;2022-10-03T00:24:04;2.90;;;2.65;;
12768;SDS011;6448;48.916;8.990;2022-10-03T00:25:19;2.90;;;2.70;;
12768;SDS011;6448;48.916;8.990;2022-10-03T00:26:34;2.85;;;2.65;;
12768;SDS011;6448;48.916;8.990;2022-10-03T00:27:41;2.72;;;2.53;;
12768;SDS011;6448;48.916;8.990;2022-10-03T00:28:50;2.83;;;2.63;;
12768;SDS011;6448;48.916;8.990;2022-10-03T00:30:04;3.00;;;2.80;;
12768;SDS011;6448;48.916;8.990;2022-10-03T00:31:14;2.80;;;2.60;;
12768;SDS011;6448;48.916;8.990;2022-10-03T00:32:27;2.80;;;2.60;;
12768;SDS011;6448;48.916;8.990;2022-10-03T00:33:46;2.70;;;2.50;;
12768;SDS011;6448;48.916;8.990;2022-10-03T00:35:00;2.60;;;2.40;;
12768;SDS011;6448;48.916;8.990;2022-10-03T00:36:16;2.92;;;2.72;;
12768;SDS011;6448;48.916;8.990;2022-10-03T00:37:27;2.75;;;2.55;;
12768;SDS011;6448;48.916;8.990;2022-10-03T00:41:41;2.78;;;2.58;;
12768;SDS011;6448;48.916;8.990;2022-10-03T00:43:25;2.80;;;2.60;;
12768;SDS011;6448;48.916;8.990;2022-10-03T00:49:55;2.40;;;2.30;;
12768;SDS011;6448;48.916;8.990;2022-10-03T00:51:24;2.70;;;2.50;;
12768;SDS011;6448;48.916;8.990;2022-10-03T00:52:47;2.50;;;2.30;;
12768;SDS011;6448;48.916;8.990;2022-10-03T00:54:09;2.55;;;2.35;;
12768;SDS011;6448;48.916;8.990;2022-10-03T00:55:38;2.80;;;2.60;;
12768;SDS011;6448;48.916;8.990;2022-10-03T00:56:52;2.42;;;2.33;;
12768;SDS011;6448;48.916;8.990;2022-10-03T00:58:09;2.60;;;2.40;;
12768;SDS011;6448;48.916;8.990;2022-10-03T00:59:32;2.38;;;2.20;;
12768;SDS011;6448;48.916;8.990;2022-10-03T01:00:45;2.53;;;2.33;;
12768;SDS011;6448;48.916;8.990;2022-10-03T01:01:51;2.60;;;2.40;;
12768;SDS011;6448;48.916;8.990;2022-10-03T01:03:06;2.38;;;2.17;;
12768;SDS011;6448;48.916;8.990;2022-10-03T01:05:58;2.53;;;2.33;;
12768;SDS011;6448;48.916;8.990;2022-10-03T01:07:13;2.30;;;2.10;;
12768;SDS011;6448;48.916;8.990;2022-10-03T01:09:50;2.58;;;2.38;;
12768;SDS011;6448;48.916;8.990;2022-10-03T01:11:02;2.40;;;2.30;;
12768;SDS011;6448;48.916;8.990;2022-10-03T01:12:15;2.42;;;2.30;;
12768;SDS011;6448;48.916;8.990;2022-10-03T01:13:30;2.60;;;2.40;;
12768;SDS011;6448;48.916;8.990;2022-10-03T01:14:46;2.55;;;2.35;;
12768;SDS011;6448;48.916;8.990;2022-10-03T01:15:59;2.63;;;2.42;;
12768;SDS011;6448;48.916;8.990;2022-10-03T01:17:15;2.80;;;2.60;;
12768;SDS011;6448;48.916;8.990;2022-10-03T01:18:30;2.67;;;2.40;;
12768;SDS011;6448;48.916;8.990;2022-10-03T01:19:43;2.90;;;2.70;;
12768;SDS011;6448;48.916;8.990;2022-10-03T01:21:09;2.72;;;2.53;;
12768;SDS011;6448;48.916;8.990;2022-10-03T01:22:25;2.95;;;2.75;;
12768;SDS011;6448;48.916;8.990;2022-10-03T01:23:44;2.60;;;2.40;;
12768;SDS011;6448;48.916;8.990;2022-10-03T01:25:10;2.80;;;2.60;;
12768;SDS011;6448;48.916;8.990;2022-10-03T01:26:21;2.90;;;2.70;;
12768;SDS011;6448;48.916;8.990;2022-10-03T01:27:40;2.92;;;2.72;;
12768;SDS011;6448;48.916;8.990;2022-10-03T01:29:04;2.90;;;2.70;;
12768;SDS011;6448;48.916;8.990;2022-10-03T01:30:30;2.70;;;2.50;;
12768;SDS011;6448;48.916;8.990;2022-10-03T01:31:40;2.80;;;2.60;;
12768;SDS011;6448;48.916;8.990;2022-10-03T01:32:49;2.70;;;2.50;;
12768;SDS011;6448;48.916;8.990;2022-10-03T01:33:59;2.85;;;2.65;;
12768;SDS011;6448;48.916;8.990;2022-10-03T01:35:09;2.67;;;2.47;;
12768;SDS011;6448;48.916;8.990;2022-10-03T01:36:19;2.80;;;2.60;;
12768;SDS011;6448;48.916;8.990;2022-10-03T01:37:30;3.00;;;2.80;;
12768;SDS011;6448;48.916;8.990;2022-10-03T01:38:40;2.90;;;2.70;;
12768;SDS011;6448;48.916;8.990;2022-10-03T01:39:45;2.80;;;2.60;;
12768;SDS011;6448;48.916;8.990;2022-10-03T01:40:54;2.95;;;2.75;;
12768;SDS011;6448;48.916;8.990;2022-10-03T01:42:01;2.88;;;2.67;;
12768;SDS011;6448;48.916;8.990;2022-10-03T01:43:12;2.70;;;2.50;;
12768;SDS011;6448;48.916;8.990;2022-10-03T01:44:23;2.80;;;2.60;;
12768;SDS011;6448;48.916;8.990;2022-10-03T01:45:34;2.78;;;2.58;;
12768;SDS011;6448;48.916;8.990;2022-10-03T01:46:46;2.80;;;2.53;;
12768;SDS011;6448;48.916;8.990;2022-10-03T01:47:54;2.55;;;2.35;;
12768;SDS011;6448;48.916;8.990;2022-10-03T01:49:04;2.90;;;2.70;;
12768;SDS011;6448;48.916;8.990;2022-10-03T01:50:14;2.80;;;2.60;;
12768;SDS011;6448;48.916;8.990;2022-10-03T01:51:25;2.78;;;2.58;;
12768;SDS011;6448;48.916;8.990;2022-10-03T01:52:36;2.70;;;2.50;;
12768;SDS011;6448;48.916;8.990;2022-10-03T01:53:56;3.03;;;2.72;;
12768;SDS011;6448;48.916;8.990;2022-10-03T01:55:04;2.70;;;2.50;;
12768;SDS011;6448;48.916;8.990;2022-10-03T01:56:14;2.75;;;2.55;;
12768;SDS011;6448;48.916;8.990;2022-10-03T01:57:26;2.70;;;2.50;;
12768;SDS011;6448;48.916;8.990;2022-10-03T01:58:46;2.72;;;2.53;;
12768;SDS011;6448;48.916;8.990;2022-10-03T02:00:00;2.70;;;2.50;;
12768;SDS011;6448;48.916;8.990;2022-10-03T02:01:18;2.67;;;2.47;;
12768;SDS011;6448;48.916;8.990;2022-10-03T02:02:29;2.70;;;2.50;;
12768;SDS011;6448;48.916;8.990;2022-10-03T02:03:42;2.80;;;2.60;;
12768;SDS011;6448;48.916;8.990;2022-10-03T02:04:56;2.70;;;2.50;;
12768;SDS011;6448;48.916;8.990;2022-10-03T02:06:04;2.80;;;2.60;;
12768;SDS011;6448;48.916;8.990;2022-10-03T02:07:16;2.60;;;2.40;;
12768;SDS011;6448;48.916;8.990;2022-10-03T02:08:34;2.72;;;2.53;;
12768;SDS011;6448;48.916;8.990;2022-10-03T02:09:49;2.50;;;2.30;;
12768;SDS011;6448;48.916;8.990;2022-10-03T02:11:02;2.70;;;2.50;;
12768;SDS011;6448;48.916;8.990;2022-10-03T02:12:08;2.80;;;2.60;;
12768;SDS011;6448;48.916;8.990;2022-10-03T02:13:13;2.75;;;2.55;;
12768;SDS011;6448;48.916;8.990;2022-10-03T02:14:23;2.60;;;2.40;;
12768;SDS011;6448;48.916;8.990;2022-10-03T02:15:39;2.70;;;2.50;;
12768;SDS011;6448;48.916;8.990;2022-10-03T02:16:53;2.70;;;2.50;;
12768;SDS011;6448;48.916;8.990;2022-10-03T02:18:01;2.72;;;2.53;;
12768;SDS011;6448;48.916;8.990;2022-10-03T02:19:14;2.63;;;2.40;;
12768;SDS011;6448;48.916;8.990;2022-10-03T02:20:23;2.65;;;2.45;;
12768;SDS011;6448;48.916;8.990;2022-10-03T02:21:29;2.80;;;2.60;;
12768;SDS011;6448;48.916;8.990;2022-10-03T02:22:35;2.85;;;2.65;;
12768;SDS011;6448;48.916;8.990;2022-10-03T02:23:42;2.72;;;2.53;;
12768;SDS011;6448;48.916;8.990;2022-10-03T02:24:46;2.80;;;2.60;;
12768;SDS011;6448;48.916;8.990;2022-10-03T02:25:57;2.50;;;2.30;;
12768;SDS011;6448;48.916;8.990;2022-10-03T02:28:44;2.95;;;2.75;;
12768;SDS011;6448;48.916;8.990;2022-10-03T02:30:03;2.90;;;2.70;;
12768;SDS011;6448;48.916;8.990;2022-10-03T02:31:24;2.90;;;2.70;;
12768;SDS011;6448;48.916;8.990;2022-10-03T02:32:52;3.00;;;2.80;;
12768;SDS011;6448;48.916;8.990;2022-10-03T02:34:31;2.97;;;2.78;;
12768;SDS011;6448;48.916;8.990;2022-10-03T02:38:05;3.10;;;2.90;;
12768;SDS011;6448;48.916;8.990;2022-10-03T02:39:51;2.70;;;2.50;;
12768;SDS011;6448;48.916;8.990;2022-10-03T02:41:35;2.90;;;2.55;;
12768;SDS011;6448;48.916;8.990;2022-10-03T02:44:56;2.72;;;2.53;;
12768;SDS011;6448;48.916;8.990;2022-10-03T02:46:19;2.67;;;2.47;;
12768;SDS011;6448;48.916;8.990;2022-10-03T02:49:24;2.60;;;2.40;;
12768;SDS011;6448;48.916;8.990;2022-10-03T02:50:42;2.55;;;2.40;;
12768;SDS011;6448;48.916;8.990;2022-10-03T02:52:08;2.90;;;2.70;;
12768;SDS011;6448;48.916;8.990;2022-10-03T02:53:39;2.65;;;2.53;;
12768;SDS011;6448;48.916;8.990;2022-10-03T02:55:13;3.10;;;2.90;;
12768;SDS011;6448;48.916;8.990;2022-10-03T02:58:20;2.70;;;2.50;;
12768;SDS011;6448;48.916;8.990;2022-10-03T03:00:04;2.80;;;2.60;;
12768;SDS011;6448;48.916;8.990;2022-10-03T03:01:22;2.90;;;2.70;;
12768;SDS011;6448;48.916;8.990;2022-10-03T03:04:20;3.00;;;2.80;;
12768;SDS011;6448;48.916;8.990;2022-10-03T03:06:11;2.83;;;2.63;;
12768;SDS011;6448;48.916;8.990;2022-10-03T03:07:31;2.80;;;2.60;;
12768;SDS011;6448;48.916;8.990;2022-10-03T03:09:01;2.95;;;2.75;;
12768;SDS011;6448;48.916;8.990;2022-10-03T03:10:30;2.90;;;2.70;;
12768;SDS011;6448;48.916;8.990;2022-10-03T03:11:52;3.00;;;2.80;;
12768;SDS011;6448;48.916;8.990;2022-10-03T03:13:24;2.97;;;2.78;;
12768;SDS011;6448;48.916;8.990;2022-10-03T03:15:03;2.70;;;2.50;;
12768;SDS011;6448;48.916;8.990;2022-10-03T03:18:04;2.85;;;2.65;;
12768;SDS011;6448;48.916;8.990;2022-10-03T03:19:25;3.10;;;2.90;;
12768;SDS011;6448;48.916;8.990;2022-10-03T03:20:53;3.00;;;2.80;;
12768;SDS011;6448;48.916;8.990;2022-10-03T03:22:07;2.97;;;2.78;;
12768;SDS011;6448;48.916;8.990;2022-10-03T03:23:25;3.20;;;3.00;;
12768;SDS011;6448;48.916;8.990;2022-10-03T03:24:53;2.95;;;2.75;;
12768;SDS011;6448;48.916;8.990;2022-10-03T03:26:17;3.30;;;3.00;;
12768;SDS011;6448;48.916;8.990;2022-10-03T03:27:33;3.00;;;2.80;;
12768;SDS011;6448;48.916;8.990;2022-10-03T03:28:44;2.80;;;2.60;;
12768;SDS011;6448;48.916;8.990;2022-10-03T03:29:56;3.20;;;3.00;;
12768;SDS011;6448;48.916;8.990;2022-10-03T03:31:04;3.00;;;2.80;;
12768;SDS011;6448;48.916;8.990;2022-10-03T03:32:12;3.20;;;3.00;;
12768;SDS011;6448;48.916;8.990;2022-10-03T03:33:27;3.08;;;2.88;;
12768;SDS011;6448;48.916;8.990;2022-10-03T03:34:39;2.88;;;2.67;;
12768;SDS011;6448;48.916;8.990;2022-10-03T03:35:51;3.10;;;2.90;;
12768;SDS011;6448;48.916;8.990;2022-10-03T03:37:01;3.10;;;2.90;;
12768;SDS011;6448;48.916;8.990;2022-10-03T03:38:11;3.00;;;2.80;;
12768;SDS011;6448;48.916;8.990;2022-10-03T03:39:26;2.90;;;2.70;;
12768;SDS011;6448;48.916;8.990;2022-10-03T03:40:52;3.00;;;2.80;;
12768;SDS011;6448;48.916;8.990;2022-10-03T03:42:12;3.13;;;2.92;;
12768;SDS011;6448;48.916;8.990;2022-10-03T03:43:44;3.05;;;2.85;;
12768;SDS011;6448;48.916;8.990;2022-10-03T03:46:39;3.10;;;2.90;;
12768;SDS011;6448;48.916;8.990;2022-10-03T03:48:04;2.90;;;2.70;;
12768;SDS011;6448;48.916;8.990;2022-10-03T03:49:32;3.20;;;3.00;;
12768;SDS011;6448;48.916;8.990;2022-10-03T03:50:46;3.10;;;2.80;;
12768;SDS011;6448;48.916;8.990;2022-10-03T03:52:06;3.03;;;2.83;;
12768;SDS011;6448;48.916;8.990;2022-10-03T03:53:24;3.22;;;3.03;;
12768;SDS011;6448;48.916;8.990;2022-10-03T03:54:43;3.13;;;2.92;;
12768;SDS011;6448;48.916;8.990;2022-10-03T03:56:01;3.00;;;2.80;;
12768;SDS011;6448;48.916;8.990;2022-10-03T03:57:35;3.30;;;3.00;;
12768;SDS011;6448;48.916;8.990;2022-10-03T03:58:58;3.05;;;2.85;;
12768;SDS011;6448;48.916;8.990;2022-10-03T04:00:15;3.58;;;3.28;;
12768;SDS011;6448;48.916;8.990;2022-10-03T04:02:56;2.95;;;2.75;;
12768;SDS011;6448;48.916;8.990;2022-10-03T04:04:18;3.10;;;2.90;;
12768;SDS011;6448;48.916;8.990;2022-10-03T04:05:51;3.20;;;3.00;;
12768;SDS011;6448;48.916;8.990;2022-10-03T04:07:15;3.15;;;2.88;;
12768;SDS011;6448;48.916;8.990;2022-10-03T04:10:06;3.00;;;2.80;;
12768;SDS011;6448;48.916;8.990;2022-10-03T04:11:24;3.00;;;2.80;;
12768;SDS011;6448;48.916;8.990;2022-10-03T04:12:46;2.90;;;2.70;;
12768;SDS011;6448;48.916;8.990;2022-10-03T04:14:28;3.05;;;2.85;;
12768;SDS011;6448;48.916;8.990;2022-10-03T04:15:53;2.90;;;2.70;;
12768;SDS011;6448;48.916;8.990;2022-10-03T04:17:17;2.90;;;2.70;;
12768;SDS011;6448;48.916;8.990;2022-10-03T04:18:53;3.30;;;3.00;;
12768;SDS011;6448;48.916;8.990;2022-10-03T04:20:10;3.40;;;3.10;;
12768;SDS011;6448;48.916;8.990;2022-10-03T04:23:13;4.60;;;4.20;;
12768;SDS011;6448;48.916;8.990;2022-10-03T04:26:06;4.57;;;4.28;;
12768;SDS011;6448;48.916;8.990;2022-10-03T04:27:22;4.60;;;4.30;;
12768;SDS011;6448;48.916;8.990;2022-10-03T04:30:45;4.60;;;4.30;;
12768;SDS011;6448;48.916;8.990;2022-10-03T04:32:01;4.47;;;4.18;;
12768;SDS011;6448;48.916;8.990;2022-10-03T04:33:17;5.07;;;4.77;;
12768;SDS011;6448;48.916;8.990;2022-10-03T04:34:35;5.03;;;4.63;;
12768;SDS011;6448;48.916;8.990;2022-10-03T04:35:54;4.45;;;4.05;;
12768;SDS011;6448;48.916;8.990;2022-10-03T04:37:23;4.70;;;4.40;;
12768;SDS011;6448;48.916;8.990;2022-10-03T04:38:37;4.20;;;3.90;;
12768;SDS011;6448;48.916;8.990;2022-10-03T04:39:45;4.60;;;4.30;;
12768;SDS011;6448;48.916;8.990;2022-10-03T04:40:54;4.80;;;4.40;;
12768;SDS011;6448;48.916;8.990;2022-10-03T04:42:07;4.63;;;4.25;;
12768;SDS011;6448;48.916;8.990;2022-10-03T04:43:23;4.55;;;4.25;;
12768;SDS011;6448;48.916;8.990;2022-10-03T04:44:39;4.63;;;4.32;;
12768;SDS011;6448;48.916;8.990;2022-10-03T04:45:55;4.63;;;4.32;;
12768;SDS011;6448;48.916;8.990;2022-10-03T04:47:07;4.90;;;4.50;;
12768;SDS011;6448;48.916;8.990;2022-10-03T04:48:17;4.40;;;4.10;;
12768;SDS011;6448;48.916;8.990;2022-10-03T04:49:30;4.30;;;4.00;;
12768;SDS011;6448;48.916;8.990;2022-10-03T04:50:38;4.38;;;4.05;;
12768;SDS011;6448;48.916;8.990;2022-10-03T04:51:47;4.30;;;4.00;;
12768;SDS011;6448;48.916;8.990;2022-10-03T04:52:55;4.30;;;4.00;;
12768;SDS011;6448;48.916;8.990;2022-10-03T04:54:10;4.43;;;4.10;;
12768;SDS011;6448;48.916;8.990;2022-10-03T04:55:19;4.78;;;4.38;;
12768;SDS011;6448;48.916;8.990;2022-10-03T04:56:33;4.60;;;4.30;;
12768;SDS011;6448;48.916;8.990;2022-10-03T04:57:46;5.00;;;4.60;;
12768;SDS011;6448;48.916;8.990;2022-10-03T04:58:59;4.68;;;4.38;;
12768;SDS011;6448;48.916;8.990;2022-10-03T05:00:13;5.10;;;4.70;;
12768;SDS011;6448;48.916;8.990;2022-10-03T05:01:24;5.22;;;4.82;;
12768;SDS011;6448;48.916;8.990;2022-10-03T05:02:40;4.80;;;4.50;;
12768;SDS011;6448;48.916;8.990;2022-10-03T05:03:48;5.30;;;4.90;;
12768;SDS011;6448;48.916;8.990;2022-10-03T05:05:07;6.15;;;5.60;;
12768;SDS011;6448;48.916;8.990;2022-10-03T05:06:30;5.72;;;5.28;;
12768;SDS011;6448;48.916;8.990;2022-10-03T05:07:44;5.55;;;5.15;;
12768;SDS011;6448;48.916;8.990;2022-10-03T05:08:56;5.22;;;4.82;;
12768;SDS011;6448;48.916;8.990;2022-10-03T05:10:18;5.70;;;5.30;;
12768;SDS011;6448;48.916;8.990;2022-10-03T05:11:32;5.70;;;5.30;;
12768;SDS011;6448;48.916;8.990;2022-10-03T05:12:49;5.72;;;5.32;;
12768;SDS011;6448;48.916;8.990;2022-10-03T05:13:57;5.30;;;4.90;;
12768;SDS011;6448;48.916;8.990;2022-10-03T05:15:13;5.60;;;5.20;;
12768;SDS011;6448;48.916;8.990;2022-10-03T05:16:24;5.45;;;5.05;;
12768;SDS011;6448;48.916;8.990;2022-10-03T05:17:40;5.45;;;5.05;;
12768;SDS011;6448;48.916;8.990;2022-10-03T05:19:01;5.38;;;4.97;;
12768;SDS011;6448;48.916;8.990;2022-10-03T05:22:02;5.50;;;5.07;;
12768;SDS011;6448;48.916;8.990;2022-10-03T05:23:22;5.35;;;4.85;;
12768;SDS011;6448;48.916;8.990;2022-10-03T05:24:37;5.25;;;4.88;;
12768;SDS011;6448;48.916;8.990;2022-10-03T05:25:59;5.15;;;4.75;;
12768;SDS011;6448;48.916;8.990;2022-10-03T05:27:11;5.10;;;4.70;;
12768;SDS011;6448;48.916;8.990;2022-10-03T05:28:30;5.20;;;4.80;;
12768;SDS011;6448;48.916;8.990;2022-10-03T05:29:42;5.37;;;4.97;;
12768;SDS011;6448;48.916;8.990;2022-10-03T05:30:52;5.25;;;4.85;;
12768;SDS011;6448;48.916;8.990;2022-10-03T05:32:19;5.07;;;4.70;;
12768;SDS011;6448;48.916;8.990;2022-10-03T05:33:32;4.88;;;4.57;;
12768;SDS011;6448;48.916;8.990;2022-10-03T05:35:04;4.80;;;4.50;;
12768;SDS011;6448;48.916;8.990;2022-10-03T05:36:26;4.70;;;4.40;;
12768;SDS011;6448;48.916;8.990;2022-10-03T05:37:38;4.80;;;4.50;;
12768;SDS011;6448;48.916;8.990;2022-10-03T05:40:25;4.85;;;4.55;;
12768;SDS011;6448;48.916;8.990;2022-10-03T05:41:28;4.70;;;4.30;;
12768;SDS011;6448;48.916;8.990;2022-10-03T05:42:36;4.50;;;4.20;;
12768;SDS011;6448;48.916;8.990;2022-10-03T05:43:56;4.80;;;4.50;;
12768;SDS011;6448;48.916;8.990;2022-10-03T05:45:04;4.80;;;4.40;;
12768;SDS011;6448;48.916;8.990;2022-10-03T05:46:27;4.68;;;4.28;;
12768;SDS011;6448;48.916;8.990;2022-10-03T05:47:49;4.60;;;4.30;;
12768;SDS011;6448;48.916;8.990;2022-10-03T05:49:07;4.80;;;4.40;;
12768;SDS011;6448;48.916;8.990;2022-10-03T05:50:33;4.95;;;4.63;;
12768;SDS011;6448;48.916;8.990;2022-10-03T05:53:38;4.95;;;4.55;;
12768;SDS011;6448;48.916;8.990;2022-10-03T05:55:08;4.95;;;4.65;;
12768;SDS011;6448;48.916;8.990;2022-10-03T05:56:29;5.78;;;5.38;;
12768;SDS011;6448;48.916;8.990;2022-10-03T05:59:52;6.60;;;6.10;;
12768;SDS011;6448;48.916;8.990;2022-10-03T06:01:33;6.40;;;5.97;;
12768;SDS011;6448;48.916;8.990;2022-10-03T06:03:09;6.10;;;5.70;;
12768;SDS011;6448;48.916;8.990;2022-10-03T06:06:25;6.05;;;5.65;;
12768;SDS011;6448;48.916;8.990;2022-10-03T06:11:55;5.60;;;5.20;;
12768;SDS011;6448;48.916;8.990;2022-10-03T06:13:10;5.80;;;5.40;;
12768;SDS011;6448;48.916;8.990;2022-10-03T06:14:42;5.07;;;4.68;;
12768;SDS011;6448;48.916;8.990;2022-10-03T06:16:20;5.30;;;4.90;;
12768;SDS011;6448;48.916;8.990;2022-10-03T06:19:34;5.90;;;5.50;;
12768;SDS011;6448;48.916;8.990;2022-10-03T06:24:41;6.30;;;5.82;;
12768;SDS011;6448;48.916;8.990;2022-10-03T06:26:35;6.00;;;5.60;;
12768;SDS011;6448;48.916;8.990;2022-10-03T06:30:00;5.40;;;5.00;;
12768;SDS011;6448;48.916;8.990;2022-10-03T06:47:39;5.43;;;5.03;;
12768;SDS011;6448;48.916;8.990;2022-10-03T06:51:07;4.90;;;4.60;;
12768;SDS011;6448;48.916;8.990;2022-10-03T06:53:20;5.37;;;4.97;;
12768;SDS011;6448;48.916;8.990;2022-10-03T06:58:03;5.65;;;5.20;;
12768;SDS011;6448;48.916;8.990;2022-10-03T07:01:47;5.82;;;5.32;;
12768;SDS011;6448;48.916;8.990;2022-10-03T07:10:22;5.93;;;5.53;;
12768;SDS011;6448;48.916;8.990;2022-10-03T07:19:45;6.13;;;5.68;;
12768;SDS011;6448;48.916;8.990;2022-10-03T07:27:41;5.15;;;4.72;;
12768;SDS011;6448;48.916;8.990;2022-10-03T07:29:18;5.13;;;4.72;;
12768;SDS011;6448;48.916;8.990;2022-10-03T07:30:57;5.53;;;5.03;;
12768;SDS011;6448;48.916;8.990;2022-10-03T07:37:16;5.13;;;4.72;;
12768;SDS011;6448;48.916;8.990;2022-10-03T07:42:24;5.25;;;4.80;;
12768;SDS011;6448;48.916;8.990;2022-10-03T07:44:17;5.00;;;4.50;;
12768;SDS011;6448;48.916;8.990;2022-10-03T07:46:33;4.90;;;4.50;;
12768;SDS011;6448;48.916;8.990;2022-10-03T07:48:10;5.35;;;4.85;;
12768;SDS011;6448;48.916;8.990;2022-10-03T07:49:43;5.00;;;4.60;;
12768;SDS011;6448;48.916;8.990;2022-10-03T07:51:15;4.82;;;4.43;;
12768;SDS011;6448;48.916;8.990;2022-10-03T07:52:48;4.90;;;4.50;;
12768;SDS011;6448;48.916;8.990;2022-10-03T07:54:29;4.82;;;4.43;;
12768;SDS011;6448;48.916;8.990;2022-10-03T07:55:58;5.07;;;4.50;;
12768;SDS011;6448;48.916;8.990;2022-10-03T08:02:44;5.75;;;4.78;;
12768;SDS011;6448;48.916;8.990;2022-10-03T08:04:54;4.50;;;4.10;;
12768;SDS011;6448;48.916;8.990;2022-10-03T08:06:27;4.57;;;4.18;;
12768;SDS011;6448;48.916;8.990;2022-10-03T08:08:09;4.80;;;4.40;;
12768;SDS011;6448;48.916;8.990;2022-10-03T08:09:51;4.93;;;4.40;;
12768;SDS011;6448;48.916;8.990;2022-10-03T08:11:24;5.03;;;4.57;;
12768;SDS011;6448;48.916;8.990;2022-10-03T08:13:06;4.78;;;4.25;;
12768;SDS011;6448;48.916;8.990;2022-10-03T08:14:48;4.80;;;4.30;;
12768;SDS011;6448;48.916;8.990;2022-10-03T08:16:23;4.80;;;4.40;;
12768;SDS011;6448;48.916;8.990;2022-10-03T08:17:58;4.43;;;4.07;;
12768;SDS011;6448;48.916;8.990;2022-10-03T08:19:38;4.32;;;4.03;;
12768;SDS011;6448;48.916;8.990;2022-10-03T08:21:16;4.50;;;4.10;;
12768;SDS011;6448;48.916;8.990;2022-10-03T08:22:37;4.82;;;4.43;;
12768;SDS011;6448;48.916;8.990;2022-10-03T08:26:23;4.50;;;4.10;;
12768;SDS011;6448;48.916;8.990;2022-10-03T08:30:04;4.30;;;3.90;;
12768;SDS011;6448;48.916;8.990;2022-10-03T08:36:29;4.45;;;4.03;;
12768;SDS011;6448;48.916;8.990;2022-10-03T08:49:16;3.90;;;3.50;;
12768;SDS011;6448;48.916;8.990;2022-10-03T08:54:53;4.18;;;3.40;;
12768;SDS011;6448;48.916;8.990;2022-10-03T08:57:08;3.90;;;3.08;;
12768;SDS011;6448;48.916;8.990;2022-10-03T09:07:26;3.78;;;3.00;;
12768;SDS011;6448;48.916;8.990;2022-10-03T09:27:26;3.70;;;3.35;;
12768;SDS011;6448;48.916;8.990;2022-10-03T09:29:30;3.42;;;2.80;;
12768;SDS011;6448;48.916;8.990;2022-10-03T09:31:10;3.72;;;3.00;;
12768;SDS011;6448;48.916;8.990;2022-10-03T09:37:48;3.72;;;3.10;;
12768;SDS011;6448;48.916;8.990;2022-10-03T09:48:16;3.58;;;3.00;;
12768;SDS011;6448;48.916;8.990;2022-10-03T09:53:41;4.10;;;3.20;;
12768;SDS011;6448;48.916;8.990;2022-10-03T09:59:17;3.72;;;2.80;;
12768;SDS011;6448;48.916;8.990;2022-10-03T10:01:32;2.93;;;2.53;;
12768;SDS011;6448;48.916;8.990;2022-10-03T10:05:18;3.47;;;2.60;;
12768;SDS011;6448;48.916;8.990;2022-10-03T10:09:43;3.50;;;2.85;;
12768;SDS011;6448;48.916;8.990;2022-10-03T10:12:08;3.53;;;2.80;;
12768;SDS011;6448;48.916;8.990;2022-10-03T10:23:29;3.33;;;2.85;;
12768;SDS011;6448;48.916;8.990;2022-10-03T10:28:30;3.40;;;2.33;;
12768;SDS011;6448;48.916;8.990;2022-10-03T11:10:35;2.63;;;2.25;;
12768;SDS011;6448;48.916;8.990;2022-10-03T15:56:58;3.20;;;2.80;;
12768;SDS011;6448;48.916;8.990;2022-10-03T16:59:42;2.55;;;2.25;;
12768;SDS011;6448;48.916;8.990;2022-10-03T17:15:56;2.50;;;1.40;;
12768;SDS011;6448;48.916;8.990;2022-10-03T17:26:13;2.08;;;1.40;;
12768;SDS011;6448;48.916;8.990;2022-10-03T17:42:43;1.95;;;1.50;;
12768;SDS011;6448;48.916;8.990;2022-10-03T17:44:06;1.63;;;1.27;;
12768;SDS011;6448;48.916;8.990;2022-10-03T17:47:46;2.03;;;1.40;;
12768;SDS011;6448;48.916;8.990;2022-10-03T17:49:38;1.70;;;1.30;;
12768;SDS011;6448;48.916;8.990;2022-10-03T17:51:26;2.00;;;1.40;;
12768;SDS011;6448;48.916;8.990;2022-10-03T17:53:30;1.95;;;1.30;;
12768;SDS011;6448;48.916;8.990;2022-10-03T17:54:50;1.40;;;1.30;;
12768;SDS011;6448;48.916;8.990;2022-10-03T17:55:59;1.80;;;1.30;;
12768;SDS011;6448;48.916;8.990;2022-10-03T17:57:11;1.77;;;1.30;;
12768;SDS011;6448;48.916;8.990;2022-10-03T17:58:23;1.70;;;1.30;;
12768;SDS011;6448;48.916;8.990;2022-10-03T17:59:33;1.48;;;1.38;;
12768;SDS011;6448;48.916;8.990;2022-10-03T18:01:05;1.58;;;1.42;;
12768;SDS011;6448;48.916;8.990;2022-10-03T18:02:21;2.08;;;1.30;;
12768;SDS011;6448;48.916;8.990;2022-10-03T18:03:36;1.50;;;1.30;;
12768;SDS011;6448;48.916;8.990;2022-10-03T18:04:46;1.67;;;1.20;;
12768;SDS011;6448;48.916;8.990;2022-10-03T18:05:56;1.52;;;1.30;;
12768;SDS011;6448;48.916;8.990;2022-10-03T18:07:06;2.28;;;1.30;;
12768;SDS011;6448;48.916;8.990;2022-10-03T18:08:16;1.77;;;1.40;;
12768;SDS011;6448;48.916;8.990;2022-10-03T18:09:23;2.38;;;1.42;;
12768;SDS011;6448;48.916;8.990;2022-10-03T18:10:30;2.10;;;1.30;;
12768;SDS011;6448;48.916;8.990;2022-10-03T18:11:36;1.30;;;1.20;;
12768;SDS011;6448;48.916;8.990;2022-10-03T18:12:55;1.40;;;1.30;;
12768;SDS011;6448;48.916;8.990;2022-10-03T18:14:11;1.50;;;1.30;;
12768;SDS011;6448;48.916;8.990;2022-10-03T18:15:38;1.80;;;1.30;;
12768;SDS011;6448;48.916;8.990;2022-10-03T18:17:02;1.70;;;1.25;;
12768;SDS011;6448;48.916;8.990;2022-10-03T18:20:18;1.67;;;1.20;;
12768;SDS011;6448;48.916;8.990;2022-10-03T18:21:34;2.13;;;1.17;;
12768;SDS011;6448;48.916;8.990;2022-10-03T18:22:47;2.90;;;1.30;;
12768;SDS011;6448;48.916;8.990;2022-10-03T18:24:05;1.50;;;1.20;;
12768;SDS011;6448;48.916;8.990;2022-10-03T18:25:19;1.45;;;1.23;;
12768;SDS011;6448;48.916;8.990;2022-10-03T18:26:47;2.20;;;1.30;;
12768;SDS011;6448;48.916;8.990;2022-10-03T18:28:04;1.83;;;1.38;;
12768;SDS011;6448;48.916;8.990;2022-10-03T18:29:20;1.33;;;1.20;;
12768;SDS011;6448;48.916;8.990;2022-10-03T18:30:30;1.75;;;1.33;;
12768;SDS011;6448;48.916;8.990;2022-10-03T18:31:35;1.42;;;1.20;;
12768;SDS011;6448;48.916;8.990;2022-10-03T18:32:45;1.38;;;1.25;;
12768;SDS011;6448;48.916;8.990;2022-10-03T18:33:50;1.73;;;1.30;;
12768;SDS011;6448;48.916;8.990;2022-10-03T18:35:01;2.03;;;1.20;;
12768;SDS011;6448;48.916;8.990;2022-10-03T18:36:12;1.30;;;1.20;;
12768;SDS011;6448;48.916;8.990;2022-10-03T18:38:58;1.48;;;1.27;;
12768;SDS011;6448;48.916;8.990;2022-10-03T18:40:12;2.30;;;1.27;;
12768;SDS011;6448;48.916;8.990;2022-10-03T18:41:26;1.58;;;1.20;;
12768;SDS011;6448;48.916;8.990;2022-10-03T18:42:32;2.00;;;1.33;;
12768;SDS011;6448;48.916;8.990;2022-10-03T18:43:35;1.50;;;1.30;;
12768;SDS011;6448;48.916;8.990;2022-10-03T18:44:44;1.70;;;1.23;;
12768;SDS011;6448;48.916;8.990;2022-10-03T18:45:45;1.90;;;1.30;;
12768;SDS011;6448;48.916;8.990;2022-10-03T18:46:49;1.85;;;1.35;;
12768;SDS011;6448;48.916;8.990;2022-10-03T18:48:10;1.60;;;1.40;;
12768;SDS011;6448;48.916;8.990;2022-10-03T18:49:19;1.45;;;1.30;;